createdAt,value
2018-09-22T00:02:04.127Z,2.77
2018-09-22T00:04:32.193Z,3.67
2018-09-22T00:07:00.382Z,1.87
2018-09-22T00:09:28.810Z,1.63
2018-09-22T00:11:56.603Z,2.73
2018-09-22T00:14:30.908Z,2.30
2018-09-22T00:17:00.175Z,4.43
2018-09-22T00:19:29.405Z,2.10
2018-09-22T00:22:15.154Z,2.20
2018-09-22T00:24:47.422Z,3.83
2018-09-22T00:27:16.940Z,2.47
2018-09-22T00:29:46.518Z,3.87
2018-09-22T00:32:15.917Z,4.27
2018-09-22T00:46:17.230Z,3.90
2018-09-22T00:48:49.586Z,4.43
2018-09-22T00:51:23.879Z,3.20
2018-09-22T00:53:54.032Z,5.87
2018-09-22T00:56:24.114Z,3.53
2018-09-22T00:58:53.226Z,4.13
2018-09-22T01:01:21.048Z,7.10
2018-09-22T01:03:55.329Z,4.00
2018-09-22T01:06:23.604Z,4.90
2018-09-22T01:11:26.589Z,6.07
2018-09-22T01:13:57.565Z,7.53
2018-09-22T01:16:26.653Z,6.17
2018-09-22T01:18:58.389Z,5.67
2018-09-22T01:21:28.446Z,6.30
2018-09-22T01:23:57.635Z,5.97
2018-09-22T01:26:25.632Z,5.03
2018-09-22T01:28:56.210Z,4.97
2018-09-22T01:31:27.160Z,6.80
2018-09-22T01:33:55.772Z,6.73
2018-09-22T01:36:24.705Z,8.53
2018-09-22T01:38:53.166Z,9.70
2018-09-22T01:41:22.026Z,5.90
2018-09-22T01:43:51.648Z,5.40
2018-09-22T01:46:20.610Z,5.40
2018-09-22T01:48:49.968Z,6.63
2018-09-22T01:51:21.734Z,5.67
2018-09-22T01:53:51.832Z,2.57
2018-09-22T01:56:20.356Z,5.97
2018-09-22T01:58:48.045Z,7.53
2018-09-22T02:01:15.789Z,6.53
2018-09-22T02:03:45.182Z,5.17
2018-09-22T02:06:13.402Z,7.63
2018-09-22T02:08:42.169Z,6.43
2018-09-22T02:11:11.427Z,6.57
2018-09-22T02:13:49.603Z,5.17
2018-09-22T02:16:18.359Z,4.13
2018-09-22T02:18:46.588Z,5.10
2018-09-22T02:21:16.454Z,6.20
2018-09-22T02:23:44.560Z,4.27
2018-09-22T02:26:13.464Z,4.93
2018-09-22T02:28:44.357Z,6.97
2018-09-22T02:31:13.508Z,8.20
2018-09-22T02:33:41.670Z,6.07
2018-09-22T02:36:09.954Z,4.67
2018-09-22T02:38:39.310Z,6.27
2018-09-22T02:41:13.492Z,5.83
2018-09-22T02:43:43.915Z,4.30
2018-09-22T02:46:13.860Z,4.47
2018-09-22T02:48:43.327Z,3.57
2018-09-22T02:51:13.343Z,6.97
2018-09-22T02:53:42.011Z,5.60
2018-09-22T02:56:13.338Z,5.03
2018-09-22T02:58:41.543Z,5.17
2018-09-22T03:01:09.542Z,5.93
2018-09-22T03:03:37.543Z,5.33
2018-09-22T03:06:06.423Z,5.37
2018-09-22T03:08:35.906Z,4.37
2018-09-22T03:11:03.963Z,2.80
2018-09-22T03:13:32.658Z,7.00
2018-09-22T03:16:01.561Z,3.23
2018-09-22T03:18:30.063Z,5.93
2018-09-22T03:20:59.483Z,6.57
2018-09-22T03:23:28.353Z,5.47
2018-09-22T03:25:58.005Z,5.83
2018-09-22T03:28:26.087Z,5.00
2018-09-22T03:30:53.912Z,3.77
2018-09-22T03:33:22.488Z,4.47
2018-09-22T03:35:50.594Z,4.37
2018-09-22T03:38:18.669Z,4.10
2018-09-22T03:40:47.689Z,3.50
2018-09-22T03:43:15.626Z,6.10
2018-09-22T03:45:43.835Z,5.40
2018-09-22T03:48:13.599Z,7.40
2018-09-22T03:50:41.957Z,4.43
2018-09-22T03:53:10.631Z,3.77
2018-09-22T03:55:38.711Z,7.60
2018-09-22T03:58:09.208Z,4.90
2018-09-22T04:00:38.356Z,5.57
2018-09-22T04:03:07.764Z,5.03
2018-09-22T04:05:35.848Z,8.20
2018-09-22T04:08:03.855Z,9.07
2018-09-22T04:10:32.103Z,4.60
2018-09-22T04:13:00.098Z,8.23
2018-09-22T04:15:28.204Z,6.87
2018-09-22T04:17:57.024Z,10.80
2018-09-22T04:20:25.295Z,7.33
2018-09-22T04:22:54.657Z,5.17
2018-09-22T04:25:23.214Z,3.87
2018-09-22T04:27:51.948Z,5.23
2018-09-22T04:30:22.599Z,6.97
2018-09-22T04:32:50.739Z,4.80
2018-09-22T04:35:18.854Z,8.23
2018-09-22T04:37:47.081Z,6.77
2018-09-22T04:40:16.418Z,8.97
2018-09-22T04:42:44.973Z,5.30
2018-09-22T04:45:14.573Z,8.63
2018-09-22T04:47:42.633Z,6.87
2018-09-22T04:50:11.285Z,7.00
2018-09-22T04:52:42.737Z,7.57
2018-09-22T04:55:10.728Z,7.47
2018-09-22T04:57:39.178Z,5.10
2018-09-22T05:00:08.589Z,4.63
2018-09-22T05:02:37.667Z,6.87
2018-09-22T05:05:07.437Z,10.23
2018-09-22T05:07:35.474Z,9.50
2018-09-22T05:10:04.779Z,6.53
2018-09-22T05:12:33.615Z,9.93
2018-09-22T05:15:01.751Z,5.37
2018-09-22T05:17:31.333Z,6.33
2018-09-22T05:19:59.473Z,7.43
2018-09-22T05:22:28.496Z,5.00
2018-09-22T05:24:56.788Z,8.23
2018-09-22T05:27:25.355Z,7.10
2018-09-22T05:29:53.723Z,4.53
2018-09-22T05:32:23.982Z,3.57
2018-09-22T05:34:51.955Z,6.13
2018-09-22T05:37:19.669Z,6.07
2018-09-22T05:39:47.698Z,8.50
2018-09-22T05:42:15.390Z,7.40
2018-09-22T05:44:43.648Z,7.00
2018-09-22T05:47:11.637Z,5.83
2018-09-22T05:49:39.500Z,4.37
2018-09-22T05:52:07.231Z,10.70
2018-09-22T05:54:34.931Z,6.37
2018-09-22T05:57:02.794Z,5.87
2018-09-22T05:59:30.667Z,8.17
2018-09-22T06:01:59.223Z,6.43
2018-09-22T06:04:27.292Z,6.07
2018-09-22T06:06:55.167Z,4.43
2018-09-22T06:09:23.446Z,6.57
2018-09-22T06:11:51.963Z,5.13
2018-09-22T06:14:20.467Z,5.40
2018-09-22T06:16:48.668Z,5.60
2018-09-22T06:19:16.506Z,5.17
2018-09-22T06:21:44.202Z,3.97
2018-09-22T06:24:12.746Z,9.27
2018-09-22T06:26:41.873Z,5.10
2018-09-22T06:29:11.507Z,6.57
2018-09-22T06:31:39.491Z,5.53
2018-09-22T06:34:08.476Z,6.17
2018-09-22T06:36:36.627Z,3.50
2018-09-22T06:39:07.542Z,4.73
2018-09-22T06:41:35.618Z,5.17
2018-09-22T06:44:28.791Z,6.10
2018-09-22T06:46:56.873Z,6.10
2018-09-22T06:49:25.617Z,4.40
2018-09-22T06:51:54.558Z,5.10
2018-09-22T06:54:23.046Z,3.70
2018-09-22T06:56:53.858Z,5.70
2018-09-22T06:59:33.910Z,5.37
2018-09-22T07:04:37.740Z,4.47
2018-09-22T07:07:09.193Z,5.60
2018-09-22T07:09:37.454Z,4.33
2018-09-22T07:15:36.018Z,6.27
2018-09-22T07:18:04.027Z,5.93
2018-09-22T07:20:32.147Z,6.42
2018-09-22T07:23:08.138Z,3.77
2018-09-22T07:25:36.743Z,3.40
2018-09-22T07:28:05.231Z,3.10
2018-09-22T07:30:33.143Z,4.70
2018-09-22T07:33:02.768Z,3.37
2018-09-22T07:35:49.520Z,4.20
2018-09-22T07:38:20.693Z,5.58
2018-09-22T07:40:52.181Z,6.15
2018-09-22T07:43:24.470Z,3.67
2018-09-22T07:45:53.894Z,5.15
2018-09-22T07:48:24.094Z,4.95
2018-09-22T07:50:52.489Z,4.37
2018-09-22T07:53:20.248Z,6.50
2018-09-22T07:55:48.335Z,4.12
2018-09-22T07:58:16.330Z,5.77
2018-09-22T08:00:44.575Z,7.37
2018-09-22T08:03:13.279Z,3.37
2018-09-22T08:05:44.763Z,5.53
2018-09-22T08:08:21.449Z,5.50
2018-09-22T08:10:49.682Z,8.23
2018-09-22T08:13:18.231Z,4.40
2018-09-22T08:16:02.934Z,5.97
2018-09-22T08:18:38.231Z,8.97
2018-09-22T08:21:09.974Z,6.77
2018-09-22T08:23:47.604Z,5.30
2018-09-22T08:26:15.889Z,5.42
2018-09-22T08:29:04.429Z,9.23
2018-09-22T08:35:23.377Z,8.68
2018-09-22T08:38:05.680Z,5.33
2018-09-22T08:40:33.909Z,7.03
2018-09-22T08:43:07.885Z,9.67
2018-09-22T08:46:09.106Z,9.57
2018-09-22T08:48:36.865Z,7.70
2018-09-22T08:56:13.404Z,6.67
2018-09-22T08:58:54.661Z,7.27
2018-09-22T09:01:37.369Z,9.47
2018-09-22T09:07:27.693Z,8.10
2018-09-22T09:09:56.463Z,7.43
2018-09-22T09:12:24.899Z,6.60
2018-09-22T09:14:55.047Z,6.77
2018-09-22T09:17:24.688Z,8.97
2018-09-22T09:19:57.728Z,9.03
2018-09-22T09:22:28.252Z,8.27
2018-09-22T09:24:57.193Z,9.63
2018-09-22T09:27:25.428Z,7.63
2018-09-22T09:29:56.664Z,12.53
2018-09-22T09:32:31.342Z,12.13
2018-09-22T09:35:00.808Z,8.50
2018-09-22T09:37:31.602Z,6.73
2018-09-22T09:39:59.678Z,12.27
2018-09-22T09:42:37.409Z,6.23
2018-09-22T09:45:09.286Z,7.77
2018-09-22T09:47:39.367Z,8.20
2018-09-22T09:50:12.247Z,13.70
2018-09-22T09:52:48.657Z,7.80
2018-09-22T09:55:16.788Z,7.90
2018-09-22T09:57:46.109Z,8.63
2018-09-22T10:00:16.502Z,7.57
2018-09-22T10:02:51.480Z,6.70
2018-09-22T10:05:19.692Z,6.93
2018-09-22T10:07:47.966Z,9.37
2018-09-22T10:10:22.495Z,7.63
2018-09-22T10:15:29.412Z,12.13
2018-09-22T10:17:57.863Z,6.58
2018-09-22T10:20:26.114Z,7.17
2018-09-22T10:22:55.117Z,6.23
2018-09-22T10:25:24.392Z,8.47
2018-09-22T10:28:04.573Z,8.57
2018-09-22T10:30:49.066Z,6.53
2018-09-22T10:33:17.265Z,3.80
2018-09-22T10:35:50.698Z,9.63
2018-09-22T10:38:23.216Z,6.00
2018-09-22T10:40:55.428Z,5.87
2018-09-22T10:54:57.340Z,5.07
2018-09-22T10:57:25.958Z,8.00
2018-09-22T10:59:55.690Z,7.77
2018-09-22T11:08:29.287Z,5.33
2018-09-22T11:11:02.174Z,9.60
2018-09-22T11:13:37.493Z,6.30
2018-09-22T11:39:54.160Z,9.87
2018-09-22T11:42:22.735Z,6.97
2018-09-22T11:44:56.596Z,8.40
2018-09-22T11:47:26.635Z,9.63
2018-09-22T11:49:57.257Z,5.90
2018-09-22T11:52:25.139Z,8.57
2018-09-22T11:54:53.455Z,6.37
2018-09-22T11:57:21.269Z,8.60
2018-09-22T11:59:49.298Z,9.23
2018-09-22T12:02:21.342Z,4.40
2018-09-22T12:04:49.739Z,8.57
2018-09-22T12:07:19.357Z,9.70
2018-09-22T12:09:48.483Z,5.37
2018-09-22T12:12:16.285Z,10.17
2018-09-22T12:14:44.400Z,6.03
2018-09-22T12:17:12.500Z,8.20
2018-09-22T12:19:41.383Z,5.87
2018-09-22T12:22:09.360Z,8.10
2018-09-22T12:24:37.423Z,6.47
2018-09-22T12:27:06.630Z,5.10
2018-09-22T12:29:35.032Z,7.17
2018-09-22T12:32:03.061Z,8.23
2018-09-22T12:34:32.054Z,7.07
2018-09-22T12:37:01.395Z,7.43
2018-09-22T12:39:30.001Z,9.40
2018-09-22T12:42:00.213Z,6.23
2018-09-22T12:44:28.635Z,10.43
2018-09-22T12:46:57.115Z,7.50
2018-09-22T12:49:29.575Z,8.70
2018-09-22T12:52:08.010Z,5.53
2018-09-22T12:54:39.716Z,9.63
2018-09-22T12:57:14.108Z,7.63
2018-09-22T12:59:45.880Z,6.87
2018-09-22T13:02:15.277Z,5.77
2018-09-22T13:04:43.632Z,3.33
2018-09-22T13:07:12.479Z,5.33
2018-09-22T13:09:40.590Z,2.57
2018-09-22T13:12:08.585Z,2.43
2018-09-22T13:14:37.125Z,2.03
2018-09-22T13:17:13.361Z,3.67
2018-09-22T13:19:43.683Z,7.80
2018-09-22T13:22:29.143Z,2.80
2018-09-22T13:25:06.391Z,1.30
2018-09-22T13:27:38.583Z,3.63
2018-09-22T13:30:11.906Z,4.43
2018-09-22T13:32:44.903Z,1.60
2018-09-22T13:35:16.148Z,4.27
2018-09-22T13:37:45.616Z,2.63
2018-09-22T13:40:14.341Z,3.50
2018-09-22T13:42:42.603Z,5.33
2018-09-22T13:45:13.954Z,6.50
2018-09-22T13:47:42.201Z,6.93
2018-09-22T13:50:11.354Z,3.47
2018-09-22T13:52:40.098Z,7.53
2018-09-22T13:55:08.841Z,5.77
2018-09-22T13:57:38.611Z,3.97
2018-09-22T14:00:06.821Z,3.17
2018-09-22T14:02:36.315Z,6.13
2018-09-22T14:05:05.924Z,6.87
2018-09-22T14:07:33.722Z,3.67
2018-09-22T14:10:01.876Z,4.67
2018-09-22T14:12:29.961Z,6.80
2018-09-22T14:14:58.385Z,4.57
2018-09-22T14:17:27.032Z,4.30
2018-09-22T14:19:55.073Z,2.50
2018-09-22T14:22:23.271Z,2.20
2018-09-22T14:24:51.822Z,4.70
2018-09-22T14:27:20.049Z,3.20
2018-09-22T14:29:48.179Z,4.43
2018-09-22T14:32:16.513Z,2.87
2018-09-22T14:34:45.117Z,3.83
2018-09-22T14:37:14.149Z,4.40
2018-09-22T14:39:42.408Z,5.83
2018-09-22T14:42:10.549Z,4.37
2018-09-22T14:44:38.806Z,4.77
2018-09-22T14:47:06.677Z,3.30
2018-09-22T14:49:34.555Z,5.47
2018-09-22T14:52:04.359Z,6.37
2018-09-22T14:54:32.247Z,5.60
2018-09-22T14:57:00.207Z,10.60
2018-09-22T14:59:29.482Z,8.87
2018-09-22T15:01:57.440Z,8.13
2018-09-22T15:04:25.564Z,5.37
2018-09-22T15:06:53.507Z,6.77
2018-09-22T15:09:24.247Z,8.97
2018-09-22T15:11:54.575Z,7.47
2018-09-22T15:14:24.212Z,9.57
2018-09-22T15:16:52.712Z,8.00
2018-09-22T15:19:21.010Z,5.67
2018-09-22T15:21:51.738Z,3.80
2018-09-22T15:24:23.780Z,9.07
2018-09-22T15:26:52.266Z,10.53
2018-09-22T15:29:21.528Z,4.63
2018-09-22T15:31:50.932Z,8.10
2018-09-22T15:34:19.052Z,8.37
2018-09-22T15:36:47.822Z,10.77
2018-09-22T15:39:16.729Z,6.43
2018-09-22T15:41:45.661Z,7.10
2018-09-22T15:44:14.537Z,11.70
2018-09-22T15:46:42.450Z,8.17
2018-09-22T15:49:11.398Z,9.70
2018-09-22T15:51:39.742Z,7.33
2018-09-22T15:54:07.501Z,7.93
2018-09-22T15:56:35.506Z,4.90
2018-09-22T15:59:05.512Z,8.00
2018-09-22T16:01:33.246Z,4.77
2018-09-22T16:04:03.517Z,9.07
2018-09-22T16:06:31.548Z,7.27
2018-09-22T16:09:00.006Z,6.97
2018-09-22T16:11:28.471Z,7.13
2018-09-22T16:13:58.055Z,6.83
2018-09-22T16:16:26.180Z,9.27
2018-09-22T16:18:54.829Z,6.80
2018-09-22T16:21:22.844Z,7.53
2018-09-22T16:23:50.903Z,6.50
2018-09-22T16:26:19.328Z,7.17
2018-09-22T16:28:47.936Z,8.67
2018-09-22T16:31:15.919Z,12.43
2018-09-22T16:33:43.857Z,7.00
2018-09-22T16:36:12.942Z,8.67
2018-09-22T16:38:41.139Z,11.90
2018-09-22T16:41:09.079Z,10.43
2018-09-22T16:43:36.885Z,7.10
2018-09-22T16:46:05.001Z,8.87
2018-09-22T16:48:32.943Z,7.77
2018-09-22T16:51:01.044Z,8.00
2018-09-22T16:53:29.525Z,7.17
2018-09-22T16:55:57.917Z,9.20
2018-09-22T16:58:27.961Z,7.57
2018-09-22T17:00:56.038Z,9.27
2018-09-22T17:03:24.279Z,10.97
2018-09-22T17:05:52.949Z,8.83
2018-09-22T17:08:21.079Z,11.37
2018-09-22T17:10:49.355Z,10.33
2018-09-22T17:13:17.412Z,10.13
2018-09-22T17:15:45.378Z,10.73
2018-09-22T17:18:14.302Z,6.90
2018-09-22T17:20:42.320Z,7.40
2018-09-22T17:23:10.298Z,9.13
2018-09-22T17:25:38.386Z,15.20
2018-09-22T17:28:07.960Z,11.73
2018-09-22T17:30:35.917Z,10.10
2018-09-22T17:33:03.829Z,8.43
2018-09-22T17:35:31.732Z,10.17
2018-09-22T17:37:59.840Z,8.67
2018-09-22T17:40:27.727Z,9.97
2018-09-22T17:42:55.558Z,14.47
2018-09-22T17:45:23.574Z,12.27
2018-09-22T17:47:51.980Z,8.70
2018-09-22T17:50:19.765Z,9.10
2018-09-22T17:52:48.599Z,8.13
2018-09-22T17:55:16.315Z,9.63
2018-09-22T17:57:44.192Z,6.43
2018-09-22T18:00:12.489Z,10.57
2018-09-22T18:02:41.039Z,11.63
2018-09-22T18:05:09.231Z,12.07
2018-09-22T18:07:37.615Z,15.37
2018-09-22T18:10:05.961Z,9.57
2018-09-22T18:12:33.995Z,9.03
2018-09-22T18:15:14.765Z,9.80
2018-09-22T18:17:42.660Z,7.43
2018-09-22T18:23:05.073Z,10.13
2018-09-22T18:25:32.962Z,8.90
2018-09-22T18:28:00.915Z,11.90
2018-09-22T18:30:28.561Z,8.63
2018-09-22T18:32:56.419Z,9.07
2018-09-22T18:35:25.189Z,9.90
2018-09-22T18:37:53.398Z,10.70
2018-09-22T18:40:22.271Z,11.57
2018-09-22T18:42:51.436Z,7.40
2018-09-22T18:45:19.515Z,11.50
2018-09-22T18:47:54.036Z,13.70
2018-09-22T18:50:22.145Z,11.07
2018-09-22T18:52:50.887Z,11.60
2018-09-22T18:55:19.019Z,12.97
2018-09-22T18:57:47.290Z,12.80
2018-09-22T19:00:16.427Z,9.33
2018-09-22T19:02:44.527Z,6.20
2018-09-22T19:05:12.540Z,6.70
2018-09-22T19:07:40.566Z,5.07
2018-09-22T19:10:08.822Z,7.90
2018-09-22T19:12:36.911Z,5.23
2018-09-22T19:16:12.963Z,8.07
2018-09-22T19:18:55.506Z,8.27
2018-09-22T19:21:31.135Z,8.43
2018-09-22T19:24:03.484Z,7.27
2018-09-22T19:26:38.155Z,7.57
2018-09-22T19:29:11.887Z,9.43
2018-09-22T19:31:44.443Z,8.07
2018-09-22T19:34:16.645Z,7.27
2018-09-22T19:36:58.576Z,6.40
2018-09-22T19:39:37.787Z,11.73
2018-09-22T19:42:15.117Z,9.33
2018-09-22T19:45:45.991Z,8.33
2018-09-22T19:48:21.110Z,9.50
2018-09-22T19:50:52.607Z,8.40
2018-09-22T19:53:20.758Z,7.73
2018-09-22T19:55:49.011Z,13.40
2018-09-22T19:58:17.464Z,8.30
2018-09-22T20:00:46.659Z,8.87
2018-09-22T20:03:15.022Z,9.73
2018-09-22T20:05:43.045Z,14.07
2018-09-22T20:08:11.170Z,11.57
2018-09-22T20:10:40.541Z,11.07
2018-09-22T20:13:08.616Z,11.13
2018-09-22T20:15:37.495Z,18.07
2018-09-22T20:18:06.093Z,14.67
2018-09-22T20:20:35.750Z,16.33
2018-09-22T20:23:04.777Z,13.30
2018-09-22T20:25:33.139Z,14.97
2018-09-22T20:28:02.509Z,13.47
2018-09-22T20:30:30.893Z,16.97
2018-09-22T20:33:00.174Z,15.57
2018-09-22T20:35:28.766Z,14.20
2018-09-22T20:37:57.866Z,14.33
2018-09-22T20:40:26.028Z,13.70
2018-09-22T20:42:54.111Z,12.77
2018-09-22T20:45:22.666Z,12.90
2018-09-22T20:47:51.324Z,17.63
2018-09-22T20:50:19.827Z,14.90
2018-09-22T20:52:48.590Z,13.10
2018-09-22T20:55:16.678Z,16.70
2018-09-22T20:57:45.102Z,12.93
2018-09-22T21:00:14.289Z,14.17
2018-09-22T21:02:43.722Z,16.30
2018-09-22T21:05:12.275Z,12.23
2018-09-22T21:07:40.718Z,14.07
2018-09-22T21:10:09.680Z,13.93
2018-09-22T21:12:37.847Z,12.70
2018-09-22T21:15:06.191Z,14.73
2018-09-22T21:17:34.244Z,17.43
2018-09-22T21:20:03.633Z,12.68
2018-09-22T21:22:32.248Z,14.97
2018-09-22T21:25:01.392Z,14.37
2018-09-22T21:27:30.373Z,14.50
2018-09-22T21:29:58.573Z,16.90
2018-09-22T21:32:27.843Z,15.70
2018-09-22T21:34:56.610Z,14.13
2018-09-22T21:37:24.824Z,15.07
2018-09-22T21:39:53.125Z,14.47
2018-09-22T21:42:21.501Z,16.20
2018-09-22T21:44:49.858Z,12.67
2018-09-22T21:47:18.288Z,14.03
2018-09-22T21:49:46.911Z,15.70
2018-09-22T21:52:15.095Z,13.10
2018-09-22T21:54:43.083Z,14.37
2018-09-22T21:57:12.521Z,14.53
2018-09-22T21:59:40.890Z,17.37
2018-09-22T22:02:09.006Z,13.30
2018-09-22T22:04:37.650Z,13.40
2018-09-22T22:07:05.922Z,17.20
2018-09-22T22:09:34.157Z,14.80
2018-09-22T22:12:02.254Z,16.10
2018-09-22T22:14:30.032Z,14.10
2018-09-22T22:16:58.441Z,17.77
2018-09-22T22:19:26.668Z,19.43
2018-09-22T22:21:56.032Z,18.20
2018-09-22T22:24:24.609Z,15.60
2018-09-22T22:26:52.972Z,17.47
2018-09-22T22:29:21.840Z,20.43
2018-09-22T22:31:50.533Z,21.17
2018-09-22T22:34:20.952Z,16.53
2018-09-22T22:36:49.632Z,16.37
2018-09-22T22:39:17.845Z,14.73
2018-09-22T22:41:46.220Z,17.83
2018-09-22T22:44:14.640Z,16.27
2018-09-22T22:46:44.082Z,16.63
2018-09-22T22:49:12.456Z,16.00
2018-09-22T22:51:41.508Z,16.70
2018-09-22T22:54:10.242Z,15.37
2018-09-22T22:56:38.117Z,15.63
2018-09-22T22:59:06.685Z,18.93
2018-09-22T23:01:36.068Z,18.97
2018-09-22T23:04:04.218Z,16.40
2018-09-22T23:06:32.912Z,16.13
2018-09-22T23:09:00.852Z,14.87
2018-09-22T23:11:29.093Z,17.53
2018-09-22T23:13:57.401Z,17.23
2018-09-22T23:16:25.732Z,14.30
2018-09-22T23:18:54.287Z,17.57
2018-09-22T23:21:24.613Z,15.67
2018-09-22T23:23:52.696Z,18.40
2018-09-22T23:26:20.481Z,17.13
2018-09-22T23:28:48.156Z,19.70
2018-09-22T23:31:16.535Z,17.67
2018-09-22T23:33:44.446Z,20.10
2018-09-22T23:36:12.320Z,18.03
2018-09-22T23:38:40.204Z,19.90
2018-09-22T23:41:08.033Z,18.90
2018-09-22T23:43:37.899Z,20.97
2018-09-22T23:46:05.795Z,21.63
2018-09-22T23:48:33.914Z,20.67
2018-09-22T23:51:01.938Z,21.40
2018-09-22T23:53:29.841Z,21.83
2018-09-22T23:55:58.436Z,22.67
2018-09-22T23:58:27.501Z,21.20
